Time;durP1;ratioP1;P1;durP2;ratioP2;P2;SDS_P1;SDS_P2;PMS_P1;PMS_P2;Temp;Humidity;BMP_temperature;BMP_pressure;BME280_temperature;BME280_humidity;BME280_pressure;Samples;Min_cycle;Max_cycle;Signal;HPM_P1;HPM_P2
2023/09/26 00:01:52;;;;;;;;;;;;;;;18.50;100.00;99926.16;4972480;28;874;-60
2023/09/26 00:04:19;;;;;;;;;;;;;;;18.52;100.00;99925.69;4973522;28;884;-60
2023/09/26 00:06:46;;;;;;;;;;;;;;;18.49;100.00;99921.78;4973241;28;1942;-61
2023/09/26 00:09:13;;;;;;;;;;;;;;;18.49;100.00;99923.81;4973347;28;829;-60
2023/09/26 00:11:39;;;;;;;;;;;;;;;18.45;100.00;99928.75;4973456;28;1035;-60
2023/09/26 00:14:06;;;;;;;;;;;;;;;18.43;100.00;99925.63;4973190;28;1259;-60
2023/09/26 00:16:32;;;;;;;;;;;;;;;18.39;100.00;99927.75;4973226;28;826;-59
2023/09/26 00:18:59;;;;;;;;;;;;;;;18.39;100.00;99927.75;4973132;28;817;-60
2023/09/26 00:21:25;;;;;;;;;;;;;;;18.43;100.00;99923.59;4973383;28;833;-60
2023/09/26 00:23:52;;;;;;;;;;;;;;;18.46;100.00;99924.75;4973317;28;864;-60
2023/09/26 00:26:19;;;;;;;;;;;;;;;18.45;100.00;99923.94;4972966;28;1963;-60
2023/09/26 00:28:46;;;;;;;;;;;;;;;18.42;100.00;99918.47;4973033;28;1026;-60
2023/09/26 00:31:13;;;;;;;;;;;;;;;18.38;100.00;99920.63;4973038;28;809;-60
2023/09/26 00:33:39;;;;;;;;;;;;;;;18.38;100.00;99912.22;4973033;28;852;-60
2023/09/26 00:36:10;;;;;;;;;;;;;;;18.35;100.00;99923.09;4972973;28;912;-60
2023/09/26 00:38:36;;;;;;;;;;;;;;;18.30;100.00;99920.84;4972961;28;1269;-60
2023/09/26 00:41:03;;;;;;;;;;;;;;;18.26;100.00;99913.81;4972939;28;836;-60
2023/09/26 00:43:30;;;;;;;;;;;;;;;18.25;100.00;99910.25;4973012;28;943;-60
2023/09/26 00:45:59;;;;;;;;;;;;;;;18.25;100.00;99909.47;4972804;28;1890;-60
2023/09/26 00:48:26;;;;;;;;;;;;;;;18.23;100.00;99904.31;4955513;28;1388;-60
2023/09/26 00:50:53;;;;;;;;;;;;;;;18.25;100.00;99909.47;4971549;28;817;-60
2023/09/26 00:53:23;;;;;;;;;;;;;;;18.23;100.00;99904.31;4972853;28;936;-60
2023/09/26 00:55:51;;;;;;;;;;;;;;;18.20;100.00;99901.63;4972799;28;842;-61
2023/09/26 00:58:21;;;;;;;;;;;;;;;18.16;100.00;99910.19;4972964;28;876;-60
2023/09/26 01:00:51;;;;;;;;;;;;;;;18.15;100.00;99905.81;4972754;28;872;-60
2023/09/26 01:03:17;;;;;;;;;;;;;;;18.21;100.00;99908.81;4972713;28;833;-60
2023/09/26 01:05:44;;;;;;;;;;;;;;;18.19;100.00;99914.84;4972688;28;1894;-60
2023/09/26 01:08:11;;;;;;;;;;;;;;;18.17;100.00;99909.69;4955357;28;1273;-60
2023/09/26 01:10:37;;;;;;;;;;;;;;;18.14;100.00;99912.66;4972680;28;845;-60
2023/09/26 01:13:04;;;;;;;;;;;;;;;18.11;100.00;99914.31;4974488;28;1368;-60
2023/09/26 01:15:38;;;;;;;;;;;;;;;18.10;100.00;99909.19;4959103;28;856;-60
2023/09/26 01:18:08;;;;;;;;;;;;;;;18.07;100.00;99913.66;4976439;28;887;-60
2023/09/26 01:20:38;;;;;;;;;;;;;;;18.05;100.00;99904.16;4976376;28;888;-60
2023/09/26 01:23:06;;;;;;;;;;;;;;;18.03;100.00;99907.41;4976257;28;833;-60
2023/09/26 01:25:33;;;;;;;;;;;;;;;18.01;100.00;99900.69;4976089;28;1975;-60
2023/09/26 01:28:05;;;;;;;;;;;;;;;18.00;100.00;99901.94;4976800;28;798;-60
2023/09/26 01:30:33;;;;;;;;;;;;;;;17.97;100.00;99908.44;4976469;28;876;-60
2023/09/26 01:33:00;;;;;;;;;;;;;;;17.98;100.00;99905.16;4976087;28;809;-61
2023/09/26 01:35:27;;;;;;;;;;;;;;;17.97;100.00;99900.81;4976127;28;833;-60
2023/09/26 01:37:54;;;;;;;;;;;;;;;17.97;100.00;99898.03;4976039;28;912;-60
2023/09/26 01:40:21;;;;;;;;;;;;;;;17.97;100.00;99912.00;4976052;28;821;-60
2023/09/26 01:42:48;;;;;;;;;;;;;;;18.00;100.00;99907.53;4975870;28;852;-60
2023/09/26 01:45:15;;;;;;;;;;;;;;;17.98;100.00;99910.75;4976187;28;1882;-60
2023/09/26 01:47:50;;;;;;;;;;;;;;;18.00;100.00;99915.91;4975686;28;915;-61
2023/09/26 01:50:18;;;;;;;;;;;;;;;17.98;100.00;99916.34;4975780;28;829;-60
2023/09/26 01:52:45;;;;;;;;;;;;;;;17.91;100.00;99911.78;4975715;28;872;-60
2023/09/26 01:55:14;;;;;;;;;;;;;;;17.85;100.00;99913.59;4975726;28;832;-60
2023/09/26 01:57:40;;;;;;;;;;;;;;;17.83;100.00;99916.06;4975686;28;812;-60
2023/09/26 02:00:10;;;;;;;;;;;;;;;17.82;100.00;99911.69;4975531;28;872;-61
2023/09/26 02:02:39;;;;;;;;;;;;;;;17.83;100.00;99918.06;4975626;28;832;-60
2023/09/26 02:05:11;;;;;;;;;;;;;;;17.85;100.00;99913.59;4975471;28;1949;-60
2023/09/26 02:07:38;;;;;;;;;;;;;;;17.86;100.00;99908.78;4975521;28;857;-60
2023/09/26 02:10:05;;;;;;;;;;;;;;;17.88;100.00;99903.50;4975405;28;880;-60
2023/09/26 02:12:33;;;;;;;;;;;;;;;17.89;100.00;99896.69;4975744;28;1008;-60
2023/09/26 02:15:05;;;;;;;;;;;;;;;17.90;100.00;99903.84;4975190;28;1306;-60
2023/09/26 02:17:35;;;;;;;;;;;;;;;17.92;100.00;99909.78;4975354;28;923;-60
2023/09/26 02:20:05;;;;;;;;;;;;;;;17.91;100.00;99908.22;4975277;28;872;-60
2023/09/26 02:22:33;;;;;;;;;;;;;;;17.91;100.00;99911.00;4975291;28;817;-60
2023/09/26 02:25:00;;;;;;;;;;;;;;;17.89;100.00;99908.66;4973884;28;1991;-60
2023/09/26 02:27:26;;;;;;;;;;;;;;;17.87;100.00;99918.75;4975151;28;919;-60
2023/09/26 02:29:53;;;;;;;;;;;;;;;17.89;100.00;99922.63;4974977;28;817;-60
2023/09/26 02:32:20;;;;;;;;;;;;;;;17.84;100.00;99916.84;4957860;28;851;-60
2023/09/26 02:34:47;;;;;;;;;;;;;;;17.79;100.00;99918.16;4975078;28;833;-60
2023/09/26 02:37:13;;;;;;;;;;;;;;;17.77;100.00;99920.59;4974996;28;961;-60
2023/09/26 02:39:40;;;;;;;;;;;;;;;17.77;100.00;99917.81;4974877;28;852;-60
2023/09/26 02:42:07;;;;;;;;;;;;;;;17.77;100.00;99917.81;4974983;28;958;-60
2023/09/26 02:44:33;;;;;;;;;;;;;;;17.78;100.00;99929.81;4975007;28;880;-60
2023/09/26 02:47:00;;;;;;;;;;;;;;;17.80;100.00;99925.31;4974724;28;1882;-60
2023/09/26 02:49:26;;;;;;;;;;;;;;;17.84;100.00;99930.84;4974875;28;836;-59
2023/09/26 02:51:53;;;;;;;;;;;;;;;17.84;100.00;99928.81;4974636;28;904;-60
2023/09/26 02:54:20;;;;;;;;;;;;;;;17.90;100.00;99929.81;4974588;28;817;-60
2023/09/26 02:56:46;;;;;;;;;;;;;;;17.98;100.00;99935.16;4957184;28;1317;-60
2023/09/26 02:59:13;;;;;;;;;;;;;;;18.05;100.00;99932.91;4974529;28;888;-60
2023/09/26 03:01:40;;;;;;;;;;;;;;;18.09;100.00;99928.00;4974616;28;825;-60
2023/09/26 03:04:07;;;;;;;;;;;;;;;18.12;100.00;99921.47;4974486;28;825;-60
2023/09/26 03:06:34;;;;;;;;;;;;;;;18.09;100.00;99930.78;4974547;28;1890;-59
2023/09/26 03:09:00;;;;;;;;;;;;;;;18.19;100.00;99930.88;4974365;28;960;-60
2023/09/26 03:11:27;;;;;;;;;;;;;;;18.25;100.00;99935.44;4974205;28;995;-60
2023/09/26 03:13:54;;;;;;;;;;;;;;;18.25;100.00;99938.22;4974081;28;1391;-60
2023/09/26 03:16:20;;;;;;;;;;;;;;;18.21;100.00;99928.41;4974213;28;864;-60
2023/09/26 03:18:51;;;;;;;;;;;;;;;18.11;100.00;99935.91;4974125;28;895;-60
2023/09/26 03:21:17;;;;;;;;;;;;;;;18.05;100.00;99934.91;4974090;28;817;-60
2023/09/26 03:23:43;;;;;;;;;;;;;;;18.03;100.00;99935.38;4973977;28;877;-60
2023/09/26 03:26:11;;;;;;;;;;;;;;;18.01;100.00;99931.44;4956737;28;1974;-60
2023/09/26 03:28:37;;;;;;;;;;;;;;;17.93;100.00;99928.91;4974023;28;853;-60
2023/09/26 03:31:04;;;;;;;;;;;;;;;17.90;100.00;99940.19;4974307;28;884;-60
2023/09/26 03:33:32;;;;;;;;;;;;;;;17.85;100.00;99943.56;4956478;28;1313;-60
2023/09/26 03:35:59;;;;;;;;;;;;;;;17.80;100.00;99949.69;4973693;28;852;-60
2023/09/26 03:38:26;;;;;;;;;;;;;;;17.75;100.00;99943.44;4973743;28;863;-60
2023/09/26 03:41:10;;;;;;;;;;;;;;;17.72;100.00;99946.34;4973771;28;912;-60
2023/09/26 03:43:37;;;;;;;;;;;;;;;17.66;100.00;99953.72;4973903;28;869;-60
2023/09/26 03:46:05;;;;;;;;;;;;;;;17.61;100.00;99963.44;4973879;28;1947;-60
2023/09/26 03:48:32;;;;;;;;;;;;;;;17.63;100.00;99958.19;4973662;28;883;-60
2023/09/26 03:51:12;;;;;;;;;;;;;;;17.67;100.00;99961.66;4973606;28;849;-60
2023/09/26 03:53:40;;;;;;;;;;;;;;;17.67;100.00;99966.47;4973688;28;910;-60
2023/09/26 03:56:07;;;;;;;;;;;;;;;17.67;100.00;99970.06;4973485;28;829;-60
2023/09/26 03:58:34;;;;;;;;;;;;;;;17.69;100.00;99966.81;4973591;28;825;-60
2023/09/26 04:01:17;;;;;;;;;;;;;;;17.74;100.00;99969.81;4973373;28;867;-60
2023/09/26 04:03:51;;;;;;;;;;;;;;;17.72;100.00;99968.72;4973456;28;880;-60
2023/09/26 04:06:18;;;;;;;;;;;;;;;17.72;100.00;99975.06;4973289;28;1887;-60
2023/09/26 04:08:44;;;;;;;;;;;;;;;17.71;100.00;99969.94;4973228;28;894;-60
2023/09/26 04:11:13;;;;;;;;;;;;;;;17.74;100.00;99975.41;4973317;28;1130;-60
2023/09/26 04:13:40;;;;;;;;;;;;;;;17.83;100.00;99987.97;4973019;28;1305;-60
2023/09/26 04:16:07;;;;;;;;;;;;;;;17.85;100.00;99983.47;4973461;28;877;-60
2023/09/26 04:18:34;;;;;;;;;;;;;;;17.88;100.00;99984.59;4973169;28;891;-60
2023/09/26 04:21:04;;;;;;;;;;;;;;;17.90;100.00;99984.94;4973150;28;833;-60
2023/09/26 04:23:31;;;;;;;;;;;;;;;17.99;100.00;99973.06;4973119;28;892;-60
2023/09/26 04:25:58;;;;;;;;;;;;;;;18.05;100.00;99977.66;4973067;28;1969;-60
2023/09/26 04:28:25;;;;;;;;;;;;;;;18.10;100.00;99970.72;4973025;28;876;-60
2023/09/26 04:30:51;;;;;;;;;;;;;;;18.14;100.00;99976.97;4973059;28;1062;-60
2023/09/26 04:33:21;;;;;;;;;;;;;;;18.18;100.00;99983.22;4972972;28;820;-60
2023/09/26 04:35:54;;;;;;;;;;;;;;;18.20;100.00;99982.75;4973043;28;809;-61
2023/09/26 04:38:21;;;;;;;;;;;;;;;18.20;100.00;99977.97;4972989;28;834;-60
2023/09/26 04:40:48;;;;;;;;;;;;;;;18.23;100.00;99982.66;4955531;28;916;-60
2023/09/26 04:43:15;;;;;;;;;;;;;;;18.31;100.00;99983.22;4973225;28;841;-60
2023/09/26 04:45:41;;;;;;;;;;;;;;;18.38;100.00;99979.38;4972790;28;1894;-60
2023/09/26 04:48:08;;;;;;;;;;;;;;;18.47;100.00;99991.44;4974800;28;829;-60
2023/09/26 04:50:34;;;;;;;;;;;;;;;18.57;100.00;99989.50;4976874;28;864;-60
2023/09/26 04:53:01;;;;;;;;;;;;;;;18.67;100.00;99993.16;4976870;28;857;-60
2023/09/26 04:55:28;;;;;;;;;;;;;;;18.76;100.00;99990.44;4976744;28;860;-60
2023/09/26 04:57:55;;;;;;;;;;;;;;;18.86;100.00;99988.50;4976815;28;864;-61
2023/09/26 05:00:22;;;;;;;;;;;;;;;18.96;100.00;99988.13;4976652;28;846;-60
2023/09/26 05:02:51;;;;;;;;;;;;;;;19.08;100.00;99996.94;4976647;28;888;-60
2023/09/26 05:05:19;;;;;;;;;;;;;;;19.08;100.00;99997.72;4976714;28;1890;-60
2023/09/26 05:07:46;;;;;;;;;;;;;;;19.13;100.00;99999.13;4976723;28;830;-60
2023/09/26 05:10:14;;;;;;;;;;;;;;;19.18;100.00;99999.34;4976497;28;876;-60
2023/09/26 05:12:41;;;;;;;;;;;;;;;19.26;100.00;100002.63;4959082;28;1328;-60
2023/09/26 05:15:12;;;;;;;;;;;;;;;19.33;100.00;99999.59;4969703;28;1270;-60
2023/09/26 05:17:40;;;;;;;;;;;;;;;19.45;100.00;100005.56;4976561;28;845;-60
2023/09/26 05:20:09;;;;;;;;;;;;;;;19.59;100.00;100010.63;4958956;28;1337;-60
2023/09/26 05:22:36;;;;;;;;;;;;;;;19.72;100.00;100005.72;4976596;28;833;-60
2023/09/26 05:25:03;;;;;;;;;;;;;;;19.82;100.00;100012.13;4976169;28;1914;-60
2023/09/26 05:27:34;;;;;;;;;;;;;;;19.93;100.00;100017.34;4976241;28;868;-60
2023/09/26 05:30:01;;;;;;;;;;;;;;;20.03;100.00;100016.09;4976192;28;825;-60
2023/09/26 05:32:27;;;;;;;;;;;;;;;20.05;100.00;100024.84;4958811;28;1158;-60
2023/09/26 05:34:54;;;;;;;;;;;;;;;20.12;100.00;100021.78;4976193;28;809;-59
2023/09/26 05:37:20;;;;;;;;;;;;;;;20.22;100.00;100033.00;4975975;28;927;-59
2023/09/26 05:39:46;;;;;;;;;;;;;;;20.33;100.00;100041.75;4976013;28;863;-59
2023/09/26 05:42:13;;;;;;;;;;;;;;;20.46;100.00;100031.22;4975935;28;883;-59
2023/09/26 05:44:39;;;;;;;;;;;;;;;20.64;100.00;100021.28;4975988;28;829;-59
2023/09/26 05:47:06;;;;;;;;;;;;;;;20.77;100.00;100031.09;4975765;28;1955;-59
2023/09/26 05:49:37;;;;;;;;;;;;;;;20.86;100.00;100029.53;4975845;28;837;-59
2023/09/26 05:52:04;;;;;;;;;;;;;;;20.89;100.00;100018.16;4975841;28;817;-59
2023/09/26 05:54:33;;;;;;;;;;;;;;;20.99;100.00;100035.78;4975751;28;886;-59
2023/09/26 05:57:03;;;;;;;;;;;;;;;21.18;100.00;100039.34;4958346;28;1309;-59
2023/09/26 05:59:30;;;;;;;;;;;;;;;21.27;100.00;100042.13;4974175;28;1366;-59
2023/09/26 06:01:57;;;;;;;;;;;;;;;21.39;100.00;100037.59;4975584;28;852;-59
2023/09/26 06:04:23;;;;;;;;;;;;;;;21.54;100.00;100038.53;4975812;28;916;-59
2023/09/26 06:06:50;;;;;;;;;;;;;;;21.92;100.00;100039.19;4975404;28;1926;-59
2023/09/26 06:09:16;;;;;;;;;;;;;;;22.21;100.00;100038.56;4975393;28;828;-59
2023/09/26 06:11:43;;;;;;;;;;;;;;;22.40;100.00;100030.81;4975632;28;907;-59
2023/09/26 06:14:09;;;;;;;;;;;;;;;22.72;100.00;100026.38;4975136;28;1318;-59
2023/09/26 06:16:36;;;;;;;;;;;;;;;23.03;100.00;100026.00;4975323;28;892;-59
2023/09/26 06:19:03;;;;;;;;;;;;;;;23.16;100.00;100027.75;4975277;28;821;-59
2023/09/26 06:21:31;;;;;;;;;;;;;;;23.16;100.00;100024.94;4975239;28;825;-59
2023/09/26 06:23:58;;;;;;;;;;;;;;;23.33;100.00;100019.63;4975229;28;805;-59
2023/09/26 06:26:24;;;;;;;;;;;;;;;23.57;100.00;100019.50;4975221;28;1910;-59
2023/09/26 06:28:50;;;;;;;;;;;;;;;23.78;100.00;100029.63;4975190;28;856;-59
2023/09/26 06:31:17;;;;;;;;;;;;;;;23.94;100.00;100016.25;4975107;28;817;-59
2023/09/26 06:33:44;;;;;;;;;;;;;;;24.07;100.00;100022.38;4975063;28;878;-59
2023/09/26 06:36:14;;;;;;;;;;;;;;;24.01;100.00;100025.09;4975067;28;868;-59
2023/09/26 06:38:41;;;;;;;;;;;;;;;23.91;100.00;100015.19;4974944;28;822;-59
2023/09/26 06:41:09;;;;;;;;;;;;;;;23.99;100.00;100024.03;4975064;28;947;-59
2023/09/26 07:15:12;;;;;;;;;;;;;;;27.05;100.00;99997.91;4992777;28;1129;-57
2023/09/26 07:17:38;;;;;;;;;;;;;;;27.47;100.00;99999.00;4993376;28;855;-57
2023/09/26 07:20:07;;;;;;;;;;;;;;;27.72;100.00;100005.72;4993521;28;891;-56
2023/09/26 07:22:34;;;;;;;;;;;;;;;28.00;100.00;99993.56;4993644;28;832;-57
2023/09/26 07:25:04;;;;;;;;;;;;;;;28.23;100.00;99997.91;4993312;28;1914;-57
2023/09/26 07:27:30;;;;;;;;;;;;;;;28.37;100.00;100007.41;4993547;28;917;-56
2023/09/26 07:29:56;;;;;;;;;;;;;;;27.74;100.00;100003.13;4993451;28;872;-56
2023/09/26 07:32:23;;;;;;;;;;;;;;;27.37;100.00;99997.72;4993232;28;892;-56
2023/09/26 07:34:50;;;;;;;;;;;;;;;27.09;100.00;100004.09;4993236;28;852;-57
2023/09/26 07:37:17;;;;;;;;;;;;;;;26.81;100.00;100004.81;4993329;28;883;-56
2023/09/26 07:39:45;;;;;;;;;;;;;;;26.97;100.00;100003.31;4993105;28;848;-56
2023/09/26 07:42:11;;;;;;;;;;;;;;;27.23;100.00;99996.69;4992939;28;895;-56
2023/09/26 07:44:38;;;;;;;;;;;;;;;27.35;100.00;100008.81;4993189;28;828;-56
2023/09/26 07:47:06;;;;;;;;;;;;;;;27.52;100.00;99998.22;4992974;28;1955;-56
2023/09/26 07:49:32;;;;;;;;;;;;;;;27.46;100.00;99998.25;4993059;28;852;-56
2023/09/26 07:51:59;;;;;;;;;;;;;;;27.33;100.00;100005.69;4992834;28;891;-56
2023/09/26 07:54:26;;;;;;;;;;;;;;;26.74;100.00;100021.56;4993220;28;844;-56
2023/09/26 07:56:52;;;;;;;;;;;;;;;26.80;100.00;100023.13;4992827;28;872;-56
2023/09/26 07:59:19;;;;;;;;;;;;;;;27.01;100.00;100015.19;4992860;28;860;-56
2023/09/26 08:01:46;;;;;;;;;;;;;;;26.92;100.00;100026.75;4992849;28;887;-57
2023/09/26 08:04:13;;;;;;;;;;;;;;;27.05;100.00;100029.09;4975386;28;1202;-56
2023/09/26 08:06:39;;;;;;;;;;;;;;;27.59;100.00;100016.81;4992806;28;1894;-57
2023/09/26 08:09:06;;;;;;;;;;;;;;;27.55;100.00;100024.81;4993123;28;907;-57
2023/09/26 08:11:32;;;;;;;;;;;;;;;27.49;100.00;100016.31;4992712;28;858;-57
2023/09/26 08:13:59;;;;;;;;;;;;;;;27.67;100.00;100029.97;4992398;28;1230;-57
2023/09/26 08:16:26;;;;;;;;;;;;;;;27.54;100.00;100021.19;4992770;28;832;-57
2023/09/26 08:18:56;;;;;;;;;;;;;;;27.67;100.00;100023.50;4992818;28;796;-57
2023/09/26 08:21:24;;;;;;;;;;;;;;;27.95;100.00;100028.44;4992726;28;812;-57
2023/09/26 08:23:51;;;;;;;;;;;;;;;28.10;100.00;100040.28;4992143;28;858;-57
2023/09/26 08:26:17;;;;;;;;;;;;;;;28.14;100.00;100028.66;4992603;28;1969;-57
2023/09/26 08:28:43;;;;;;;;;;;;;;;28.46;93.26;100027.03;4992648;28;825;-57
2023/09/26 08:31:14;;;;;;;;;;;;;;;28.50;92.00;100035.28;4992576;28;856;-57
2023/09/26 08:33:43;;;;;;;;;;;;;;;28.28;90.08;100036.13;4975191;28;1204;-58
2023/09/26 08:36:17;;;;;;;;;;;;;;;28.29;92.49;100032.75;4992550;28;839;-57
2023/09/26 08:38:44;;;;;;;;;;;;;;;28.74;88.21;100039.59;4992599;28;911;-57
2023/09/26 08:41:11;;;;;;;;;;;;;;;28.42;80.95;100046.41;4992377;28;892;-57
2023/09/26 08:43:38;;;;;;;;;;;;;;;28.26;80.89;100036.63;4992413;28;852;-58
2023/09/26 08:46:05;;;;;;;;;;;;;;;28.33;80.33;100043.84;4992281;28;1973;-58
2023/09/26 08:48:33;;;;;;;;;;;;;;;28.49;78.42;100045.13;4992327;28;820;-57
2023/09/26 08:51:00;;;;;;;;;;;;;;;28.37;78.55;100043.59;4992668;28;871;-58
2023/09/26 08:53:27;;;;;;;;;;;;;;;28.27;77.79;100045.91;4992332;28;857;-56
2023/09/26 08:55:54;;;;;;;;;;;;;;;28.24;78.75;100050.59;4992397;28;892;-57
2023/09/26 08:58:21;;;;;;;;;;;;;;;28.51;77.19;100039.69;4992405;28;837;-57
2023/09/26 09:00:49;;;;;;;;;;;;;;;28.68;77.20;100057.47;4992417;28;840;-57
2023/09/26 09:03:16;;;;;;;;;;;;;;;28.31;75.24;100049.28;4992242;28;850;-57
2023/09/26 09:05:44;;;;;;;;;;;;;;;28.51;74.39;100051.06;4992325;28;1891;-57
2023/09/26 09:08:19;;;;;;;;;;;;;;;28.82;73.91;100038.50;4992226;28;843;-56
2023/09/26 09:10:54;;;;;;;;;;;;;;;29.24;73.40;100049.97;4992208;28;820;-57
2023/09/26 09:13:27;;;;;;;;;;;;;;;28.90;71.43;100042.34;4992238;28;1286;-57
2023/09/26 09:16:13;;;;;;;;;;;;;;;29.01;71.54;100032.97;4990966;28;1331;-57
2023/09/26 09:18:43;;;;;;;;;;;;;;;28.86;72.28;100046.78;4991967;28;883;-58
2023/09/26 09:21:25;;;;;;;;;;;;;;;28.45;66.78;100051.03;4992107;28;1090;-57
2023/09/26 09:23:52;;;;;;;;;;;;;;;28.19;67.88;100054.22;4992089;28;879;-57
2023/09/26 09:26:22;;;;;;;;;;;;;;;28.32;67.30;100050.06;4992081;28;1989;-57
2023/09/26 09:28:50;;;;;;;;;;;;;;;28.48;66.87;100043.53;4992089;28;895;-57
2023/09/26 09:31:16;;;;;;;;;;;;;;;28.44;65.98;100049.50;4992027;28;832;-57
2023/09/26 09:33:47;;;;;;;;;;;;;;;28.45;65.38;100053.13;4993173;28;809;-57
2023/09/26 09:36:13;;;;;;;;;;;;;;;28.52;64.26;100049.00;4995968;28;895;-57
2023/09/26 09:38:40;;;;;;;;;;;;;;;28.90;62.23;100045.19;4995648;28;945;-57
2023/09/26 09:41:08;;;;;;;;;;;;;;;29.03;60.78;100036.06;4995409;28;828;-58
2023/09/26 09:43:35;;;;;;;;;;;;;;;29.23;60.61;100046.34;4995519;28;982;-57
2023/09/26 09:46:04;;;;;;;;;;;;;;;29.31;59.53;100040.84;4995406;28;1882;-57
2023/09/26 09:48:36;;;;;;;;;;;;;;;29.46;59.07;100034.78;4995356;28;920;-57
2023/09/26 09:51:05;;;;;;;;;;;;;;;29.59;56.76;100039.88;4994072;28;1336;-57
2023/09/26 09:53:33;;;;;;;;;;;;;;;29.23;55.54;100034.16;4977865;28;1185;-56
2023/09/26 09:56:06;;;;;;;;;;;;;;;28.88;55.65;100047.78;4995209;28;1232;-57
2023/09/26 09:58:37;;;;;;;;;;;;;;;28.97;53.34;100031.72;4993933;28;2398;-57
2023/09/26 10:01:03;;;;;;;;;;;;;;;29.10;51.66;100034.78;4995397;28;868;-57
2023/09/26 10:03:30;;;;;;;;;;;;;;;29.49;51.57;100031.66;4977717;28;1177;-57
2023/09/26 10:05:58;;;;;;;;;;;;;;;29.85;49.60;100034.50;4995047;28;1882;-57
2023/09/26 10:08:26;;;;;;;;;;;;;;;29.62;46.81;100033.13;4995008;28;915;-57
2023/09/26 10:10:54;;;;;;;;;;;;;;;29.39;45.16;100036.13;4994934;28;872;-57
2023/09/26 10:13:22;;;;;;;;;;;;;;;29.26;43.18;100047.38;4994889;28;1403;-57
2023/09/26 10:16:07;;;;;;;;;;;;;;;29.13;43.19;100038.66;4994964;28;821;-58
2023/09/26 10:18:39;;;;;;;;;;;;;;;29.04;43.64;100029.09;4994815;28;820;-57
2023/09/26 10:21:20;;;;;;;;;;;;;;;29.02;40.74;100036.59;4994809;28;820;-57
2023/09/26 10:24:05;;;;;;;;;;;;;;;29.39;41.20;100021.13;4993524;28;1347;-58
2023/09/26 10:26:38;;;;;;;;;;;;;;;29.93;40.62;100023.28;4994667;28;1907;-57
2023/09/26 10:29:11;;;;;;;;;;;;;;;30.03;38.16;100006.59;4994763;28;884;-57
2023/09/26 10:31:47;;;;;;;;;;;;;;;29.91;37.79;100018.13;4994839;28;856;-58
2023/09/26 10:34:14;;;;;;;;;;;;;;;30.03;37.12;100013.06;4994857;28;832;-57
2023/09/26 10:36:43;;;;;;;;;;;;;;;30.04;37.01;100008.13;4994521;28;858;-57
2023/09/26 10:39:10;;;;;;;;;;;;;;;30.29;37.94;100009.69;4994402;28;891;-58
2023/09/26 10:41:37;;;;;;;;;;;;;;;30.42;37.20;100017.59;4994486;28;813;-57
2023/09/26 10:44:06;;;;;;;;;;;;;;;30.31;37.30;100014.88;4994379;28;820;-57
2023/09/26 10:46:33;;;;;;;;;;;;;;;29.95;36.32;100017.81;4993436;28;1953;-58
2023/09/26 10:49:10;;;;;;;;;;;;;;;29.64;37.04;100014.19;4994274;28;892;-58
2023/09/26 10:51:37;;;;;;;;;;;;;;;29.75;37.28;100013.34;4994284;28;828;-58
2023/09/26 10:54:04;;;;;;;;;;;;;;;29.98;34.79;100018.81;4976709;28;868;-59
2023/09/26 10:56:30;;;;;;;;;;;;;;;30.08;34.82;100017.16;4994224;28;812;-58
2023/09/26 10:58:57;;;;;;;;;;;;;;;30.07;34.42;100007.09;4994191;28;808;-58
2023/09/26 11:01:45;;;;;;;;;;;;;;;30.09;34.25;100013.03;4994096;28;879;-57
2023/09/26 11:04:12;;;;;;;;;;;;;;;30.16;34.36;100006.72;4993985;28;852;-58
2023/09/26 11:06:39;;;;;;;;;;;;;;;30.34;33.86;100005.25;4976371;28;1891;-58
2023/09/26 11:09:07;;;;;;;;;;;;;;;30.45;32.67;100012.88;4993893;28;986;-58
2023/09/26 11:11:34;;;;;;;;;;;;;;;30.31;33.92;100003.47;4993852;28;939;-57
2023/09/26 11:14:01;;;;;;;;;;;;;;;30.41;33.84;100001.03;4993807;28;1319;-58
2023/09/26 11:16:27;;;;;;;;;;;;;;;30.70;33.43;99997.28;4993735;28;876;-58
2023/09/26 11:18:55;;;;;;;;;;;;;;;30.89;33.46;100005.09;4993695;28;852;-58
2023/09/26 11:21:21;;;;;;;;;;;;;;;30.86;33.05;100006.94;4993676;28;840;-58
2023/09/26 11:23:48;;;;;;;;;;;;;;;30.88;34.45;99992.91;4993632;28;816;-58
2023/09/26 11:26:15;;;;;;;;;;;;;;;30.70;34.29;99994.44;4993478;28;1957;-58
2023/09/26 11:28:41;;;;;;;;;;;;;;;30.45;34.51;100001.47;4993507;28;879;-58
2023/09/26 11:31:08;;;;;;;;;;;;;;;30.29;34.51;99995.44;4993784;28;875;-58
2023/09/26 11:33:37;;;;;;;;;;;;;;;30.30;34.98;99991.31;4993422;28;859;-58
2023/09/26 11:36:03;;;;;;;;;;;;;;;30.28;35.41;99993.91;4993417;28;825;-58
2023/09/26 11:38:30;;;;;;;;;;;;;;;30.72;35.05;99983.22;4993231;28;853;-58
2023/09/26 11:40:57;;;;;;;;;;;;;;;30.84;34.67;99995.28;4976064;28;884;-58
2023/09/26 11:43:24;;;;;;;;;;;;;;;30.48;35.32;99989.00;4993216;28;840;-57
2023/09/26 11:45:59;;;;;;;;;;;;;;;30.44;35.89;99994.25;4993231;28;1875;-58
2023/09/26 11:48:26;;;;;;;;;;;;;;;30.35;36.67;99991.78;4993224;28;892;-58
2023/09/26 11:50:52;;;;;;;;;;;;;;;30.51;35.94;100000.13;4993101;28;952;-58
2023/09/26 11:53:19;;;;;;;;;;;;;;;30.55;36.48;99999.81;4993156;28;825;-58
2023/09/26 11:55:51;;;;;;;;;;;;;;;30.60;36.19;99986.78;4993251;28;880;-58
2023/09/26 11:58:17;;;;;;;;;;;;;;;30.77;36.56;99992.25;4993243;28;883;-58
2023/09/26 12:00:42;;;;;;;;;;;;;;;30.99;36.56;99994.06;4992991;28;876;-58
2023/09/26 12:03:09;;;;;;;;;;;;;;;30.62;35.91;99993.50;4993019;28;952;-58
2023/09/26 12:05:37;;;;;;;;;;;;;;;31.02;36.84;99995.81;4992788;28;1910;-58
2023/09/26 12:08:03;;;;;;;;;;;;;;;30.97;36.85;99996.69;4992816;28;836;-58
2023/09/26 12:10:30;;;;;;;;;;;;;;;31.00;35.75;99998.44;4992806;28;817;-58
2023/09/26 12:12:56;;;;;;;;;;;;;;;30.65;33.46;100003.81;4992898;28;1235;-58
2023/09/26 12:15:24;;;;;;;;;;;;;;;30.17;33.98;100007.47;4993113;28;817;-58
2023/09/26 12:17:52;;;;;;;;;;;;;;;30.37;34.47;99998.47;4992631;28;852;-58
2023/09/26 12:20:24;;;;;;;;;;;;;;;30.39;31.74;99995.09;4992733;28;841;-58
2023/09/26 12:22:52;;;;;;;;;;;;;;;29.77;31.44;100007.13;4992613;28;868;-58
2023/09/26 12:25:19;;;;;;;;;;;;;;;30.10;32.04;99989.66;4992481;28;1914;-58
2023/09/26 12:27:47;;;;;;;;;;;;;;;31.00;31.39;99992.75;4992906;28;903;-58
2023/09/26 12:30:14;;;;;;;;;;;;;;;30.92;28.62;99992.59;4992474;28;840;-58
2023/09/26 12:32:43;;;;;;;;;;;;;;;30.32;28.00;100007.84;4992651;28;848;-58
2023/09/26 12:35:10;;;;;;;;;;;;;;;29.87;28.26;99999.75;4992492;28;860;-58
2023/09/26 12:37:36;;;;;;;;;;;;;;;29.84;27.78;99990.22;4992378;28;829;-58
2023/09/26 12:40:13;;;;;;;;;;;;;;;30.06;28.04;99996.97;4992437;28;845;-58
2023/09/26 12:42:40;;;;;;;;;;;;;;;30.07;28.05;99995.69;4992492;28;836;-57
2023/09/26 12:45:07;;;;;;;;;;;;;;;29.61;29.20;99983.16;4992554;28;890;-58
2023/09/26 12:47:34;;;;;;;;;;;;;;;29.75;30.08;99984.09;4992338;28;1882;-59
2023/09/26 12:50:04;;;;;;;;;;;;;;;29.62;29.43;99982.63;4992299;28;877;-58
2023/09/26 12:52:31;;;;;;;;;;;;;;;29.30;30.98;99996.63;4974888;28;1351;-58
2023/09/26 12:54:58;;;;;;;;;;;;;;;29.17;32.04;100000.06;4992364;28;840;-57
2023/09/26 12:57:25;;;;;;;;;;;;;;;28.92;33.04;99984.94;4992266;28;851;-57
2023/09/26 12:59:53;;;;;;;;;;;;;;;28.97;32.70;99983.34;4990943;28;1253;-58
2023/09/26 13:02:22;;;;;;;;;;;;;;;28.95;32.70;99977.41;4992258;28;851;-58
2023/09/26 13:04:53;;;;;;;;;;;;;;;29.11;32.90;99985.09;4992343;28;836;-58
2023/09/26 13:07:21;;;;;;;;;;;;;;;29.24;33.17;99973.88;4990764;28;1935;-57
2023/09/26 13:09:47;;;;;;;;;;;;;;;29.54;32.86;99980.91;4995184;28;891;-58
2023/09/26 13:12:14;;;;;;;;;;;;;;;29.67;32.97;99984.66;4995898;28;897;-58
2023/09/26 13:14:41;;;;;;;;;;;;;;;29.69;33.27;99969.88;4975153;28;1319;-58
2023/09/26 13:17:17;;;;;;;;;;;;;;;29.74;32.70;99968.31;4976498;28;809;-57
2023/09/26 13:19:44;;;;;;;;;;;;;;;29.77;32.39;99981.50;4976622;28;915;-58
2023/09/26 13:22:14;;;;;;;;;;;;;;;29.46;32.51;99969.31;4976681;28;857;-58
2023/09/26 13:24:41;;;;;;;;;;;;;;;29.26;33.27;99979.81;4975136;28;1300;-58
2023/09/26 13:27:08;;;;;;;;;;;;;;;29.09;33.84;99971.41;4976183;28;1976;-58
2023/09/26 13:29:35;;;;;;;;;;;;;;;28.95;34.28;99991.66;4976320;28;903;-58